createdAt,value
2019-05-19T00:00:53.109Z,0.00
2019-05-19T00:01:53.079Z,0.00
2019-05-19T00:02:53.180Z,0.00
2019-05-19T00:03:53.064Z,0.00
2019-05-19T00:04:53.049Z,0.00
2019-05-19T00:05:53.037Z,0.00
2019-05-19T00:06:53.071Z,0.00
2019-05-19T00:07:53.021Z,0.00
2019-05-19T00:08:53.019Z,0.00
2019-05-19T00:09:53.003Z,0.00
2019-05-19T00:10:52.980Z,0.00
2019-05-19T00:11:53.020Z,0.00
2019-05-19T00:12:52.995Z,0.00
2019-05-19T00:13:52.951Z,0.00
2019-05-19T00:14:52.945Z,0.00
2019-05-19T00:15:52.936Z,0.00
2019-05-19T00:16:52.928Z,0.00
2019-05-19T00:17:52.958Z,0.00
2019-05-19T00:18:52.897Z,0.00
2019-05-19T00:19:52.888Z,0.00
2019-05-19T00:20:52.889Z,0.00
2019-05-19T00:21:52.870Z,0.00
2019-05-19T00:22:52.884Z,0.00
2019-05-19T00:23:52.845Z,0.00
2019-05-19T00:24:52.842Z,0.00
2019-05-19T00:25:52.823Z,0.00
2019-05-19T00:26:52.820Z,0.00
2019-05-19T00:27:52.837Z,0.00
2019-05-19T00:28:52.798Z,0.00
2019-05-19T00:29:52.816Z,0.00
2019-05-19T00:30:52.770Z,0.00
2019-05-19T00:31:52.770Z,0.00
2019-05-19T00:32:52.768Z,0.00
2019-05-19T00:33:52.739Z,0.00
2019-05-19T00:34:52.763Z,0.00
2019-05-19T00:35:52.721Z,0.00
2019-05-19T00:36:52.704Z,0.00
2019-05-19T00:37:52.762Z,0.00
2019-05-19T00:38:52.691Z,0.00
2019-05-19T00:39:52.679Z,0.00
2019-05-19T00:40:52.699Z,0.00
2019-05-19T00:41:52.661Z,0.00
2019-05-19T00:42:52.677Z,0.00
2019-05-19T00:43:52.639Z,0.00
2019-05-19T00:44:52.621Z,0.00
2019-05-19T00:45:52.611Z,0.00
2019-05-19T00:46:52.603Z,0.00
2019-05-19T00:47:52.635Z,0.00
2019-05-19T00:48:52.589Z,0.00
2019-05-19T00:49:52.573Z,0.00
2019-05-19T00:50:52.556Z,0.00
2019-05-19T00:51:52.547Z,0.00
2019-05-19T00:52:52.573Z,0.00
2019-05-19T00:53:52.531Z,0.00
2019-05-19T00:54:52.515Z,0.00
2019-05-19T00:55:52.507Z,0.00
2019-05-19T00:56:52.495Z,0.00
2019-05-19T00:57:52.511Z,0.00
2019-05-19T00:58:52.478Z,0.00
2019-05-19T00:59:52.465Z,0.00
2019-05-19T01:00:52.455Z,0.00
2019-05-19T01:01:52.446Z,0.00
2019-05-19T01:02:52.430Z,0.00
2019-05-19T01:03:52.467Z,0.00
2019-05-19T01:04:52.410Z,0.00
2019-05-19T01:05:52.396Z,0.00
2019-05-19T01:06:52.395Z,0.00
2019-05-19T01:07:52.421Z,0.00
2019-05-19T01:08:52.365Z,0.00
2019-05-19T01:09:52.355Z,0.00
2019-05-19T01:10:52.349Z,0.00
2019-05-19T01:11:52.340Z,0.00
2019-05-19T01:12:52.376Z,0.00
2019-05-19T01:13:52.328Z,0.00
2019-05-19T01:14:52.302Z,0.00
2019-05-19T01:15:52.289Z,0.00
2019-05-19T01:16:52.281Z,0.00
2019-05-19T01:17:52.314Z,0.00
2019-05-19T01:18:52.265Z,0.00
2019-05-19T01:19:56.155Z,0.00
2019-05-19T01:20:52.240Z,0.00
2019-05-19T01:21:52.240Z,0.00
2019-05-19T01:22:52.262Z,0.00
2019-05-19T01:23:52.239Z,0.00
2019-05-19T01:24:52.199Z,0.00
2019-05-19T01:25:52.188Z,0.00
2019-05-19T01:26:52.173Z,0.00
2019-05-19T01:27:52.163Z,0.00
2019-05-19T01:28:52.172Z,0.00
2019-05-19T01:29:52.143Z,0.00
2019-05-19T01:30:52.165Z,0.00
2019-05-19T01:31:52.124Z,0.00
2019-05-19T01:32:52.117Z,0.00
2019-05-19T01:33:52.136Z,0.00
2019-05-19T01:34:52.087Z,0.00
2019-05-19T01:35:52.079Z,0.00
2019-05-19T01:36:52.066Z,0.00
2019-05-19T01:37:52.086Z,0.00
2019-05-19T01:38:52.079Z,0.00
2019-05-19T01:39:52.039Z,0.00
2019-05-19T01:40:52.021Z,0.00
2019-05-19T01:41:52.017Z,0.00
2019-05-19T01:42:52.007Z,0.00
2019-05-19T01:43:52.046Z,0.00
2019-05-19T01:44:51.983Z,0.00
2019-05-19T01:45:51.974Z,0.00
2019-05-19T01:46:51.971Z,0.00
2019-05-19T01:47:51.948Z,0.00
2019-05-19T01:48:51.957Z,0.00
2019-05-19T01:49:51.924Z,0.00
2019-05-19T01:50:51.923Z,0.00
2019-05-19T01:51:51.924Z,0.00
2019-05-19T01:52:51.900Z,0.00
2019-05-19T01:53:51.921Z,0.00
2019-05-19T01:54:51.872Z,0.00
2019-05-19T01:55:51.860Z,0.00
2019-05-19T01:56:51.858Z,0.00
2019-05-19T01:57:51.843Z,0.00
2019-05-19T01:58:51.859Z,0.00
2019-05-19T01:59:51.823Z,0.00
2019-05-19T02:00:51.806Z,0.00
2019-05-19T02:01:51.802Z,0.00
2019-05-19T02:02:51.789Z,0.00
2019-05-19T02:03:51.827Z,0.00
2019-05-19T02:04:51.772Z,0.00
2019-05-19T02:05:51.760Z,0.00
2019-05-19T02:06:51.746Z,0.00
2019-05-19T02:07:51.738Z,0.00
2019-05-19T02:08:51.754Z,0.00
2019-05-19T02:09:51.708Z,0.00
2019-05-19T02:10:51.706Z,0.00
2019-05-19T02:11:51.696Z,0.00
2019-05-19T02:12:51.678Z,0.00
2019-05-19T02:13:51.708Z,0.00
2019-05-19T02:14:51.665Z,0.00
2019-05-19T02:15:51.650Z,0.00
2019-05-19T02:16:51.641Z,0.00
2019-05-19T02:17:51.633Z,0.00
2019-05-19T02:18:51.661Z,0.00
2019-05-19T02:19:51.603Z,0.00
2019-05-19T02:20:51.590Z,0.00
2019-05-19T02:21:51.585Z,0.00
2019-05-19T02:22:51.596Z,0.00
2019-05-19T02:23:51.609Z,0.00
2019-05-19T02:24:51.594Z,0.00
2019-05-19T02:25:51.534Z,0.00
2019-05-19T02:26:51.535Z,0.00
2019-05-19T02:27:51.536Z,0.00
2019-05-19T02:28:51.539Z,0.00
2019-05-19T02:29:51.495Z,0.00
2019-05-19T02:30:51.497Z,0.00
2019-05-19T02:31:51.477Z,0.00
2019-05-19T02:32:51.469Z,0.00
2019-05-19T02:33:51.480Z,4.00
2019-05-19T02:34:51.445Z,4.00
2019-05-19T02:35:51.433Z,4.00
2019-05-19T02:36:51.434Z,0.00
2019-05-19T02:37:51.412Z,4.00
2019-05-19T02:38:51.438Z,4.00
2019-05-19T02:39:51.395Z,4.00
2019-05-19T02:40:51.383Z,8.00
2019-05-19T02:41:51.468Z,4.00
2019-05-19T02:42:51.355Z,8.00
2019-05-19T02:43:51.375Z,8.00
2019-05-19T02:44:51.340Z,8.00
2019-05-19T02:45:51.326Z,8.00
2019-05-19T02:46:51.343Z,12.00
2019-05-19T02:47:51.304Z,12.00
2019-05-19T02:48:51.289Z,16.00
2019-05-19T02:49:51.280Z,16.00
2019-05-19T02:50:52.870Z,16.00
2019-05-19T02:51:51.316Z,20.00
2019-05-19T02:52:51.247Z,24.00
2019-05-19T02:53:51.238Z,24.00
2019-05-19T02:54:51.232Z,28.00
2019-05-19T02:55:51.220Z,32.00
2019-05-19T02:56:51.232Z,36.00
2019-05-19T02:57:51.207Z,40.00
2019-05-19T02:58:51.218Z,44.00
2019-05-19T02:59:51.172Z,52.00
2019-05-19T03:00:51.170Z,64.00
2019-05-19T03:01:51.154Z,72.00
2019-05-19T03:02:51.175Z,80.00
2019-05-19T03:03:51.169Z,92.00
2019-05-19T03:04:51.117Z,100.00
2019-05-19T03:05:51.107Z,108.00
2019-05-19T03:06:51.102Z,120.00
2019-05-19T03:07:51.091Z,128.00
2019-05-19T03:08:51.109Z,136.00
2019-05-19T03:09:51.069Z,148.00
2019-05-19T03:10:51.053Z,152.00
2019-05-19T03:11:51.049Z,156.00
2019-05-19T03:12:51.030Z,156.00
2019-05-19T03:13:51.022Z,164.00
2019-05-19T03:14:51.051Z,168.00
2019-05-19T03:15:51.011Z,176.00
2019-05-19T03:16:50.989Z,184.00
2019-05-19T03:17:50.988Z,196.00
2019-05-19T03:18:50.971Z,208.00
2019-05-19T03:19:50.995Z,220.00
2019-05-19T03:20:50.950Z,232.00
2019-05-19T03:21:50.943Z,244.00
2019-05-19T03:22:50.922Z,256.00
2019-05-19T03:23:50.921Z,272.00
2019-05-19T03:24:50.931Z,284.00
2019-05-19T03:25:50.891Z,300.00
2019-05-19T03:26:50.888Z,312.00
2019-05-19T03:27:50.876Z,324.00
2019-05-19T03:28:50.870Z,344.00
2019-05-19T03:29:50.854Z,360.00
2019-05-19T03:30:50.875Z,372.00
2019-05-19T03:31:50.828Z,384.00
2019-05-19T03:32:50.822Z,400.00
2019-05-19T03:33:50.814Z,412.00
2019-05-19T03:34:50.794Z,424.00
2019-05-19T03:35:50.829Z,436.00
2019-05-19T03:36:50.773Z,448.00
2019-05-19T03:37:50.763Z,464.00
2019-05-19T03:38:50.757Z,476.00
2019-05-19T03:39:50.750Z,500.00
2019-05-19T03:40:50.769Z,528.00
2019-05-19T03:41:50.725Z,552.00
2019-05-19T03:42:50.709Z,584.00
2019-05-19T03:43:50.696Z,616.00
2019-05-19T03:44:50.692Z,644.00
2019-05-19T03:45:50.711Z,660.00
2019-05-19T03:46:50.669Z,676.00
2019-05-19T03:47:50.661Z,696.00
2019-05-19T03:48:50.644Z,720.00
2019-05-19T03:49:50.634Z,740.00
2019-05-19T03:50:50.661Z,752.00
2019-05-19T03:51:50.620Z,772.00
2019-05-19T03:52:50.611Z,792.00
2019-05-19T03:53:50.601Z,808.00
2019-05-19T03:54:50.588Z,832.00
2019-05-19T03:55:50.606Z,864.00
2019-05-19T03:56:50.560Z,904.00
2019-05-19T03:57:50.546Z,940.00
2019-05-19T03:58:50.542Z,976.00
2019-05-19T03:59:50.557Z,996.00
2019-05-19T04:00:50.568Z,1020.00
2019-05-19T04:01:50.510Z,1064.00
2019-05-19T04:02:50.491Z,1088.00
2019-05-19T04:03:50.480Z,1128.00
2019-05-19T04:04:50.478Z,1172.00
2019-05-19T04:05:50.467Z,1220.00
2019-05-19T04:06:50.491Z,1248.00
2019-05-19T04:07:50.440Z,1284.00
2019-05-19T04:08:50.428Z,1324.00
2019-05-19T04:09:50.452Z,1376.00
2019-05-19T04:10:50.414Z,1416.00
2019-05-19T04:11:50.440Z,1468.00
2019-05-19T04:12:50.396Z,1460.00
2019-05-19T04:13:50.381Z,1420.00
2019-05-19T04:14:50.366Z,1380.00
2019-05-19T04:15:50.356Z,1356.00
2019-05-19T04:16:50.346Z,1336.00
2019-05-19T04:17:50.363Z,1308.00
2019-05-19T04:18:50.328Z,1296.00
2019-05-19T04:19:50.320Z,1268.00
2019-05-19T04:20:50.301Z,1308.00
2019-05-19T04:21:50.291Z,1344.00
2019-05-19T04:22:50.319Z,1368.00
2019-05-19T04:23:50.281Z,1404.00
2019-05-19T04:24:50.277Z,1444.00
2019-05-19T04:25:50.255Z,1496.00
2019-05-19T04:26:50.235Z,1532.00
2019-05-19T04:27:50.258Z,1588.00
2019-05-19T04:28:50.213Z,1648.00
2019-05-19T04:29:50.204Z,1692.00
2019-05-19T04:30:50.244Z,1732.00
2019-05-19T04:31:50.188Z,1764.00
2019-05-19T04:32:50.212Z,1792.00
2019-05-19T04:33:50.166Z,1816.00
2019-05-19T04:34:50.152Z,1852.00
2019-05-19T04:35:50.140Z,1884.00
2019-05-19T04:36:50.137Z,1940.00
2019-05-19T04:37:50.125Z,1996.00
2019-05-19T04:38:50.130Z,2072.00
2019-05-19T04:39:50.132Z,2160.00
2019-05-19T04:40:50.085Z,2252.00
2019-05-19T04:41:50.074Z,2332.00
2019-05-19T04:42:50.074Z,2412.00
2019-05-19T04:43:50.058Z,2440.00
2019-05-19T04:44:50.083Z,2392.00
2019-05-19T04:45:50.037Z,2392.00
2019-05-19T04:46:50.021Z,2404.00
2019-05-19T04:47:50.011Z,2412.00
2019-05-19T04:48:50.016Z,2408.00
2019-05-19T04:49:50.020Z,2400.00
2019-05-19T04:50:49.985Z,2468.00
2019-05-19T04:52:05.585Z,2552.00
2019-05-19T04:52:50.956Z,2604.00
2019-05-19T04:53:49.945Z,2648.00
2019-05-19T04:54:49.945Z,2668.00
2019-05-19T04:55:49.967Z,2656.00
2019-05-19T04:56:49.919Z,2612.00
2019-05-19T04:57:49.924Z,2576.00
2019-05-19T04:58:49.899Z,2540.00
2019-05-19T04:59:49.883Z,2540.00
2019-05-19T05:00:49.921Z,2556.00
2019-05-19T05:01:49.861Z,2580.00
2019-05-19T05:02:49.871Z,2632.00
2019-05-19T05:03:49.844Z,2668.00
2019-05-19T05:04:49.836Z,2684.00
2019-05-19T05:05:49.857Z,2780.00
2019-05-19T05:06:49.812Z,2820.00
2019-05-19T05:07:49.801Z,3004.00
2019-05-19T05:08:49.795Z,3224.00
2019-05-19T05:09:49.780Z,3432.00
2019-05-19T05:10:49.784Z,3596.00
2019-05-19T05:11:49.754Z,3764.00
2019-05-19T05:12:49.744Z,3888.00
2019-05-19T05:13:49.741Z,3980.00
2019-05-19T05:14:49.728Z,4072.00
2019-05-19T05:15:49.750Z,4152.00
2019-05-19T05:16:49.708Z,4228.00
2019-05-19T05:17:49.694Z,4248.00
2019-05-19T05:18:49.680Z,4208.00
2019-05-19T05:19:49.671Z,4048.00
2019-05-19T05:20:49.659Z,3856.00
2019-05-19T05:21:49.681Z,3816.00
2019-05-19T05:22:49.645Z,3792.00
2019-05-19T05:23:49.631Z,3752.00
2019-05-19T05:24:49.626Z,3708.00
2019-05-19T05:25:49.639Z,3592.00
2019-05-19T05:26:49.599Z,3524.00
2019-05-19T05:27:49.587Z,3460.00
2019-05-19T05:28:49.584Z,3404.00
2019-05-19T05:29:49.572Z,3380.00
2019-05-19T05:30:49.583Z,3380.00
2019-05-19T05:31:49.538Z,3460.00
2019-05-19T05:32:49.530Z,3612.00
2019-05-19T05:33:49.518Z,3620.00
2019-05-19T05:34:49.515Z,3580.00
2019-05-19T05:35:49.535Z,3436.00
2019-05-19T05:36:49.526Z,3216.00
2019-05-19T05:37:49.483Z,3064.00
2019-05-19T05:38:49.466Z,3024.00
2019-05-19T05:39:49.458Z,3032.00
2019-05-19T05:40:49.450Z,3092.00
2019-05-19T05:41:49.442Z,3248.00
2019-05-19T05:42:49.446Z,3396.00
2019-05-19T05:43:49.426Z,3588.00
2019-05-19T05:44:49.401Z,3812.00
2019-05-19T05:45:49.423Z,4048.00
2019-05-19T05:46:49.387Z,4232.00
2019-05-19T05:47:49.380Z,4440.00
2019-05-19T05:48:49.363Z,4744.00
2019-05-19T05:49:50.297Z,4796.00
2019-05-19T05:50:49.370Z,4880.00
2019-05-19T05:51:49.334Z,4884.00
2019-05-19T05:52:49.346Z,4676.00
2019-05-19T05:53:49.306Z,4388.00
2019-05-19T05:54:49.299Z,4160.00
2019-05-19T05:55:49.286Z,3748.00
2019-05-19T05:56:49.270Z,3468.00
2019-05-19T05:57:49.259Z,3232.00
2019-05-19T05:58:49.308Z,3280.00
2019-05-19T05:59:49.245Z,3364.00
2019-05-19T06:00:49.232Z,3484.00
2019-05-19T06:01:49.226Z,3636.00
2019-05-19T06:02:49.208Z,3692.00
2019-05-19T06:03:49.230Z,3712.00
2019-05-19T06:04:49.184Z,3748.00
2019-05-19T06:05:49.209Z,3760.00
2019-05-19T06:06:49.168Z,3740.00
2019-05-19T06:07:49.156Z,3792.00
2019-05-19T06:08:49.148Z,3832.00
2019-05-19T06:09:49.147Z,3876.00
2019-05-19T06:10:49.165Z,3920.00
2019-05-19T06:11:49.108Z,4032.00
2019-05-19T06:12:49.114Z,4172.00
2019-05-19T06:13:49.829Z,4304.00
2019-05-19T06:14:49.076Z,4400.00
2019-05-19T06:15:49.104Z,4520.00
2019-05-19T06:16:49.054Z,4472.00
2019-05-19T06:17:49.044Z,4516.00
2019-05-19T06:18:49.096Z,4660.00
2019-05-19T06:19:49.028Z,4836.00
2019-05-19T06:20:49.022Z,4964.00
2019-05-19T06:21:49.026Z,5160.00
2019-05-19T06:22:56.608Z,5292.00
2019-05-19T06:23:50.023Z,5236.00
2019-05-19T06:24:48.973Z,5280.00
2019-05-19T06:25:49.025Z,5512.00
2019-05-19T06:26:48.953Z,5852.00
2019-05-19T06:27:48.942Z,6096.00
2019-05-19T06:28:48.924Z,6232.00
2019-05-19T06:29:48.931Z,6340.00
2019-05-19T06:30:48.955Z,6400.00
2019-05-19T06:31:49.050Z,6292.00
2019-05-19T06:32:48.887Z,6240.00
2019-05-19T06:33:48.876Z,6328.00
2019-05-19T06:34:48.880Z,6412.00
2019-05-19T06:35:48.897Z,6628.00
2019-05-19T06:36:48.837Z,6708.00
2019-05-19T06:37:48.859Z,6676.00
2019-05-19T06:38:48.854Z,6524.00
2019-05-19T06:39:48.849Z,6460.00
2019-05-19T06:40:48.811Z,6492.00
2019-05-19T06:41:48.789Z,6688.00
2019-05-19T06:42:48.777Z,6796.00
2019-05-19T06:43:48.767Z,6852.00
2019-05-19T06:44:48.818Z,6672.00
2019-05-19T06:45:48.796Z,6636.00
2019-05-19T06:46:48.743Z,6796.00
2019-05-19T06:47:48.721Z,6948.00
2019-05-19T06:48:48.798Z,7072.00
2019-05-19T06:49:48.719Z,7208.00
2019-05-19T06:50:48.847Z,7336.00
2019-05-19T06:51:48.932Z,7356.00
2019-05-19T06:52:48.731Z,7372.00
2019-05-19T06:53:48.732Z,7524.00
2019-05-19T06:54:48.727Z,7724.00
2019-05-19T06:55:48.647Z,7872.00
2019-05-19T06:56:49.121Z,8080.00
2019-05-19T06:57:48.656Z,8288.00
2019-05-19T06:58:48.705Z,8472.00
2019-05-19T06:59:48.666Z,8620.00
2019-05-19T07:00:48.678Z,8760.00
2019-05-19T07:01:48.664Z,8860.00
2019-05-19T07:02:48.612Z,8948.00
2019-05-19T07:03:48.785Z,9004.00
2019-05-19T07:04:48.544Z,9044.00
2019-05-19T07:05:48.532Z,9088.00
2019-05-19T07:06:48.582Z,9180.00
2019-05-19T07:07:48.509Z,9236.00
2019-05-19T07:08:48.497Z,9272.00
2019-05-19T07:09:57.839Z,9316.00
2019-05-19T07:10:49.479Z,9360.00
2019-05-19T07:11:48.526Z,9380.00
2019-05-19T07:12:48.459Z,9452.00
2019-05-19T07:13:48.447Z,9500.00
2019-05-19T07:14:48.453Z,9516.00
2019-05-19T07:15:48.439Z,9608.00
2019-05-19T07:16:48.454Z,9664.00
2019-05-19T07:17:48.407Z,9884.00
2019-05-19T07:18:48.836Z,10148.00
2019-05-19T07:19:48.610Z,10552.00
2019-05-19T07:20:48.546Z,11508.00
2019-05-19T07:21:48.391Z,21248.00
2019-05-19T07:22:48.371Z,45568.00
2019-05-19T07:23:48.340Z,65408.00
2019-05-19T07:24:48.330Z,67616.00
2019-05-19T07:25:48.320Z,68704.00
2019-05-19T07:26:48.324Z,71264.00
2019-05-19T07:27:48.328Z,72032.00
2019-05-19T07:28:48.286Z,73504.00
2019-05-19T07:29:48.280Z,72992.00
2019-05-19T07:30:48.267Z,72352.00
2019-05-19T07:31:48.261Z,73088.00
2019-05-19T07:32:48.262Z,72992.00
2019-05-19T07:33:48.230Z,71904.00
2019-05-19T07:34:48.227Z,72928.00
2019-05-19T07:35:48.310Z,74144.00
2019-05-19T07:36:48.214Z,75424.00
2019-05-19T07:37:48.228Z,58688.00
2019-05-19T07:38:48.183Z,40096.00
2019-05-19T07:39:48.175Z,44512.00
2019-05-19T07:40:48.161Z,65472.00
2019-05-19T07:41:48.155Z,73216.00
2019-05-19T07:42:48.195Z,71360.00
2019-05-19T07:43:48.142Z,78720.00
2019-05-19T07:44:48.842Z,80192.00
2019-05-19T07:45:48.119Z,79552.00
2019-05-19T07:46:48.125Z,80928.00
2019-05-19T07:47:48.092Z,80160.00
2019-05-19T07:48:48.137Z,77024.00
2019-05-19T07:49:48.079Z,74784.00
2019-05-19T07:50:48.068Z,75328.00
2019-05-19T07:51:48.068Z,79424.00
2019-05-19T07:52:48.044Z,79424.00
2019-05-19T07:53:48.084Z,79520.00
2019-05-19T07:54:48.034Z,78464.00
2019-05-19T07:55:48.033Z,79264.00
2019-05-19T07:56:48.016Z,80928.00
2019-05-19T07:57:48.013Z,82144.00
2019-05-19T07:58:48.050Z,81312.00
2019-05-19T07:59:47.983Z,82688.00
2019-05-19T08:00:47.971Z,81696.00
2019-05-19T08:01:48.011Z,78272.00
2019-05-19T08:02:47.959Z,75904.00
2019-05-19T08:03:47.955Z,75168.00
2019-05-19T08:04:48.022Z,75296.00
2019-05-19T08:05:47.927Z,76320.00
2019-05-19T08:06:47.976Z,76512.00
2019-05-19T08:07:47.918Z,78272.00
2019-05-19T08:08:47.965Z,79200.00
2019-05-19T08:09:47.905Z,81632.00
2019-05-19T08:10:47.883Z,82752.00
2019-05-19T08:11:47.873Z,85280.00
2019-05-19T08:12:47.921Z,84288.00
2019-05-19T08:13:47.903Z,87040.00
2019-05-19T08:14:47.856Z,84096.00
2019-05-19T08:15:47.847Z,84480.00
2019-05-19T08:16:47.880Z,76800.00
2019-05-19T08:17:47.835Z,83072.00
2019-05-19T08:18:47.839Z,83808.00
2019-05-19T08:19:47.811Z,81472.00
2019-05-19T08:20:47.808Z,86976.00
2019-05-19T08:21:47.809Z,86752.00
2019-05-19T08:22:50.788Z,84512.00
2019-05-19T08:23:59.959Z,82400.00
2019-05-19T08:24:48.764Z,81472.00
2019-05-19T08:25:47.758Z,82464.00
2019-05-19T08:26:47.772Z,83744.00
2019-05-19T08:27:47.748Z,84896.00
2019-05-19T08:28:47.741Z,84640.00
2019-05-19T08:29:47.788Z,87296.00
2019-05-19T08:30:47.720Z,92192.00
2019-05-19T08:31:47.728Z,98144.00
2019-05-19T08:32:47.701Z,93056.00
2019-05-19T08:33:47.709Z,92960.00
2019-05-19T08:34:47.742Z,100000.00
2019-05-19T08:35:47.682Z,93248.00
2019-05-19T08:36:47.709Z,96192.00
2019-05-19T08:37:47.679Z,102656.00
2019-05-19T08:38:47.686Z,98656.00
2019-05-19T08:39:47.697Z,101184.00
2019-05-19T08:40:47.664Z,93504.00
2019-05-19T08:41:47.652Z,95744.00
2019-05-19T08:42:47.626Z,100896.00
2019-05-19T08:43:47.614Z,104096.00
2019-05-19T08:44:47.605Z,102240.00
2019-05-19T08:45:47.618Z,101888.00
2019-05-19T08:46:47.592Z,102560.00
2019-05-19T08:47:47.586Z,97984.00
2019-05-19T08:48:47.580Z,97792.00
2019-05-19T08:49:47.580Z,99808.00
2019-05-19T08:50:47.579Z,100096.00
2019-05-19T08:51:47.595Z,103104.00
2019-05-19T08:52:47.569Z,106880.00
2019-05-19T08:53:47.540Z,106880.00
2019-05-19T08:54:47.527Z,106752.00
2019-05-19T08:55:47.553Z,103712.00
2019-05-19T08:56:47.603Z,99168.00
2019-05-19T08:57:47.512Z,98016.00
2019-05-19T08:58:47.514Z,97792.00
2019-05-19T08:59:47.534Z,100928.00
2019-05-19T09:00:47.555Z,99712.00
2019-05-19T09:01:47.487Z,105184.00
2019-05-19T09:02:47.472Z,108288.00
2019-05-19T09:03:47.470Z,109984.00
2019-05-19T09:04:47.510Z,108160.00
2019-05-19T09:05:48.011Z,110080.00
2019-05-19T09:06:47.452Z,110848.00
2019-05-19T09:07:47.488Z,107488.00
2019-05-19T09:08:47.427Z,102688.00
2019-05-19T09:09:47.477Z,106176.00
2019-05-19T09:10:47.417Z,107744.00
2019-05-19T09:11:48.005Z,109696.00
2019-05-19T09:12:47.481Z,111072.00
2019-05-19T09:13:47.397Z,108544.00
2019-05-19T09:14:47.392Z,108448.00
2019-05-19T09:15:47.373Z,109856.00
2019-05-19T09:16:47.368Z,110368.00
2019-05-19T09:17:47.411Z,111456.00
2019-05-19T09:18:47.360Z,114048.00
2019-05-19T09:19:47.351Z,116768.00
2019-05-19T09:20:47.344Z,115040.00
2019-05-19T09:21:47.335Z,115040.00
2019-05-19T09:22:47.371Z,115328.00
2019-05-19T09:23:47.319Z,113856.00
2019-05-19T09:24:47.353Z,109440.00
2019-05-19T09:25:47.349Z,106560.00
2019-05-19T09:26:47.292Z,106624.00
2019-05-19T09:27:47.334Z,106880.00
2019-05-19T09:28:47.280Z,110176.00
2019-05-19T09:29:47.279Z,119456.00
2019-05-19T09:30:47.270Z,117376.00
2019-05-19T09:31:47.275Z,122656.00
2019-05-19T09:32:47.278Z,120896.00
2019-05-19T09:33:47.252Z,123136.00
2019-05-19T09:34:47.268Z,120352.00
2019-05-19T09:35:47.232Z,120384.00
2019-05-19T09:36:47.224Z,120576.00
2019-05-19T09:37:47.267Z,121632.00
2019-05-19T09:38:47.216Z,123072.00
2019-05-19T09:39:47.206Z,121504.00
2019-05-19T09:40:47.201Z,123168.00
2019-05-19T09:41:47.210Z,123808.00
2019-05-19T09:42:47.290Z,122080.00
2019-05-19T09:43:47.234Z,124000.00
2019-05-19T09:44:47.175Z,121984.00
2019-05-19T09:45:47.674Z,123264.00
2019-05-19T09:46:47.158Z,123008.00
2019-05-19T09:47:47.259Z,123744.00
2019-05-19T09:48:47.153Z,125280.00
2019-05-19T09:49:47.196Z,124480.00
2019-05-19T09:50:47.170Z,122720.00
2019-05-19T09:51:47.163Z,126112.00
2019-05-19T09:52:47.247Z,126272.00
2019-05-19T09:53:47.126Z,127584.00
2019-05-19T09:54:47.107Z,125472.00
2019-05-19T09:55:47.153Z,123488.00
2019-05-19T09:56:47.102Z,122240.00
2019-05-19T09:57:47.142Z,122592.00
2019-05-19T09:58:47.106Z,126528.00
2019-05-19T09:59:47.088Z,127040.00
2019-05-19T10:00:47.086Z,131296.00
2019-05-19T10:01:47.111Z,128800.00
2019-05-19T10:02:47.142Z,130752.00
2019-05-19T10:03:47.088Z,124768.00
2019-05-19T10:04:47.220Z,127040.00
2019-05-19T10:05:47.077Z,122944.00
2019-05-19T10:06:47.077Z,127680.00
2019-05-19T10:07:47.037Z,127328.00
2019-05-19T10:08:47.079Z,130208.00
2019-05-19T10:09:47.029Z,131712.00
2019-05-19T10:10:47.060Z,126720.00
2019-05-19T10:11:47.019Z,132192.00
2019-05-19T10:12:47.027Z,135456.00
2019-05-19T10:13:47.038Z,139424.00
2019-05-19T10:14:47.000Z,137920.00
2019-05-19T10:15:47.007Z,130784.00
2019-05-19T10:16:47.007Z,127328.00
2019-05-19T10:17:47.003Z,123808.00
2019-05-19T10:18:47.010Z,112000.00
2019-05-19T10:19:46.973Z,100608.00
2019-05-19T10:20:50.196Z,97056.00
2019-05-19T10:21:47.014Z,93984.00
2019-05-19T10:22:46.960Z,91456.00
2019-05-19T10:23:46.985Z,92160.00
2019-05-19T10:25:03.760Z,95008.00
2019-05-19T10:25:47.940Z,99456.00
2019-05-19T10:26:46.952Z,97504.00
2019-05-19T10:27:46.931Z,62144.00
2019-05-19T10:28:46.921Z,23136.00
2019-05-19T10:29:46.949Z,20448.00
2019-05-19T10:30:46.914Z,19392.00
2019-05-19T10:31:46.894Z,18400.00
2019-05-19T10:32:46.890Z,17568.00
2019-05-19T10:33:46.901Z,16896.00
2019-05-19T10:34:46.880Z,16524.00
2019-05-19T10:35:46.940Z,16896.00
2019-05-19T10:36:46.865Z,17856.00
2019-05-19T10:37:46.856Z,18144.00
2019-05-19T10:38:46.872Z,9268.00
2019-05-19T10:39:46.833Z,8844.00
2019-05-19T10:40:46.883Z,10504.00
2019-05-19T10:41:46.817Z,15412.00
2019-05-19T10:42:46.811Z,12300.00
2019-05-19T10:43:46.875Z,12292.00
2019-05-19T10:44:46.791Z,11908.00
2019-05-19T10:45:46.779Z,7456.00
2019-05-19T10:46:46.788Z,12248.00
2019-05-19T10:47:46.766Z,12588.00
2019-05-19T10:48:46.829Z,12640.00
2019-05-19T10:49:46.859Z,12324.00
2019-05-19T10:50:46.779Z,12372.00
2019-05-19T10:51:46.722Z,11476.00
2019-05-19T10:52:46.715Z,11784.00
2019-05-19T10:53:46.727Z,12012.00
2019-05-19T10:54:46.744Z,12128.00
2019-05-19T10:55:46.689Z,8396.00
2019-05-19T10:56:47.281Z,9796.00
2019-05-19T10:57:46.695Z,7596.00
2019-05-19T10:58:46.759Z,7480.00
2019-05-19T10:59:46.684Z,8484.00
2019-05-19T11:00:46.705Z,12436.00
2019-05-19T11:01:46.640Z,8408.00
2019-05-19T11:02:47.014Z,9244.00
2019-05-19T11:03:46.605Z,7756.00
2019-05-19T11:04:46.599Z,8544.00
2019-05-19T11:05:46.611Z,8100.00
2019-05-19T11:06:46.695Z,8256.00
2019-05-19T11:07:46.679Z,8476.00
2019-05-19T11:08:47.478Z,8800.00
2019-05-19T11:09:46.672Z,8764.00
2019-05-19T11:10:46.707Z,9200.00
2019-05-19T11:11:46.534Z,9172.00
2019-05-19T11:12:47.046Z,10884.00
2019-05-19T11:13:46.503Z,7352.00
2019-05-19T11:14:46.659Z,6388.00
2019-05-19T11:15:46.491Z,5952.00
2019-05-19T11:16:46.560Z,6040.00
2019-05-19T11:17:46.482Z,6332.00
2019-05-19T11:18:46.506Z,7244.00
2019-05-19T11:19:46.476Z,8680.00
2019-05-19T11:20:47.108Z,12472.00
2019-05-19T11:21:46.645Z,12372.00
2019-05-19T11:22:46.486Z,9228.00
2019-05-19T11:23:46.497Z,9148.00
2019-05-19T11:24:46.526Z,9764.00
2019-05-19T11:25:51.415Z,9436.00
2019-05-19T11:26:47.441Z,8640.00
2019-05-19T11:27:46.508Z,9040.00
2019-05-19T11:28:46.859Z,5588.00
2019-05-19T11:29:46.472Z,5076.00
2019-05-19T11:30:46.589Z,4872.00
2019-05-19T11:31:46.581Z,5728.00
2019-05-19T11:32:46.610Z,6832.00
2019-05-19T11:33:46.453Z,7132.00
2019-05-19T11:34:46.406Z,6848.00
2019-05-19T11:35:46.741Z,5620.00
2019-05-19T11:36:46.354Z,7056.00
2019-05-19T11:37:46.335Z,5656.00
2019-05-19T11:38:46.821Z,4172.00
2019-05-19T11:39:46.463Z,4472.00
2019-05-19T11:40:46.378Z,5004.00
2019-05-19T11:41:46.341Z,7844.00
2019-05-19T11:42:46.942Z,7800.00
2019-05-19T11:43:46.337Z,7832.00
2019-05-19T11:44:46.344Z,7960.00
2019-05-19T11:45:46.290Z,8184.00
2019-05-19T11:46:46.316Z,8396.00
2019-05-19T11:47:46.304Z,8428.00
2019-05-19T11:48:46.494Z,8168.00
2019-05-19T11:49:46.194Z,8288.00
2019-05-19T11:50:46.292Z,5612.00
2019-05-19T11:51:46.565Z,5584.00
2019-05-19T11:52:46.306Z,6376.00
2019-05-19T11:53:46.338Z,9784.00
2019-05-19T11:54:46.193Z,11016.00
2019-05-19T11:55:46.205Z,11752.00
2019-05-19T11:56:46.195Z,12580.00
2019-05-19T11:57:46.148Z,12624.00
2019-05-19T11:58:46.227Z,11332.00
2019-05-19T11:59:46.337Z,10216.00
2019-05-19T12:00:46.325Z,6960.00
2019-05-19T12:01:46.196Z,8320.00
2019-05-19T12:02:46.357Z,5956.00
2019-05-19T12:03:46.197Z,5940.00
2019-05-19T12:04:46.013Z,5932.00
2019-05-19T12:05:46.132Z,8588.00
2019-05-19T12:06:46.106Z,7608.00
2019-05-19T12:07:46.070Z,4824.00
2019-05-19T12:08:46.164Z,4912.00
2019-05-19T12:09:46.249Z,4540.00
2019-05-19T12:10:46.154Z,4400.00
2019-05-19T12:11:46.060Z,5840.00
2019-05-19T12:12:46.475Z,7152.00
2019-05-19T12:13:46.420Z,7132.00
2019-05-19T12:14:45.984Z,7276.00